sensor_id;sensor_type;location;lat;lon;timestamp;P1;durP1;ratioP1;P2;durP2;ratioP2
63801;SDS011;49949;43.060;25.624;2023-08-17T00:01:40;8.90;;;5.45;;
63801;SDS011;49949;43.060;25.624;2023-08-17T00:04:06;8.38;;;5.47;;
63801;SDS011;49949;43.060;25.624;2023-08-17T00:06:32;7.68;;;5.43;;
63801;SDS011;49949;43.060;25.624;2023-08-17T00:08:58;12.20;;;6.60;;
63801;SDS011;49949;43.060;25.624;2023-08-17T00:11:24;14.20;;;6.40;;
63801;SDS011;49949;43.060;25.624;2023-08-17T00:13:49;9.68;;;5.50;;
63801;SDS011;49949;43.060;25.624;2023-08-17T00:16:15;10.10;;;5.80;;
63801;SDS011;49949;43.060;25.624;2023-08-17T00:18:41;8.32;;;6.45;;
63801;SDS011;49949;43.060;25.624;2023-08-17T00:21:07;12.90;;;6.28;;
63801;SDS011;49949;43.060;25.624;2023-08-17T00:23:33;13.65;;;6.43;;
63801;SDS011;49949;43.060;25.624;2023-08-17T00:25:59;13.80;;;6.15;;
63801;SDS011;49949;43.060;25.624;2023-08-17T00:28:25;14.23;;;6.38;;
63801;SDS011;49949;43.060;25.624;2023-08-17T00:30:51;17.08;;;6.93;;
63801;SDS011;49949;43.060;25.624;2023-08-17T00:33:16;12.80;;;6.47;;
63801;SDS011;49949;43.060;25.624;2023-08-17T00:35:42;21.23;;;6.85;;
63801;SDS011;49949;43.060;25.624;2023-08-17T00:38:08;9.70;;;6.88;;
63801;SDS011;49949;43.060;25.624;2023-08-17T00:40:34;12.80;;;6.60;;
63801;SDS011;49949;43.060;25.624;2023-08-17T00:43:00;12.73;;;7.45;;
63801;SDS011;49949;43.060;25.624;2023-08-17T00:45:26;12.52;;;7.00;;
63801;SDS011;49949;43.060;25.624;2023-08-17T00:47:54;12.00;;;7.32;;
63801;SDS011;49949;43.060;25.624;2023-08-17T00:50:22;14.40;;;6.60;;
63801;SDS011;49949;43.060;25.624;2023-08-17T00:52:49;15.77;;;9.00;;
63801;SDS011;49949;43.060;25.624;2023-08-17T00:55:16;10.82;;;6.57;;
63801;SDS011;49949;43.060;25.624;2023-08-17T00:57:41;11.65;;;7.18;;
63801;SDS011;49949;43.060;25.624;2023-08-17T01:00:08;14.70;;;7.88;;
63801;SDS011;49949;43.060;25.624;2023-08-17T01:02:36;18.58;;;8.27;;
63801;SDS011;49949;43.060;25.624;2023-08-17T01:05:03;14.85;;;7.82;;
63801;SDS011;49949;43.060;25.624;2023-08-17T01:07:31;13.68;;;8.30;;
63801;SDS011;49949;43.060;25.624;2023-08-17T01:09:57;15.23;;;8.82;;
63801;SDS011;49949;43.060;25.624;2023-08-17T01:18:09;15.48;;;8.43;;
63801;SDS011;49949;43.060;25.624;2023-08-17T01:20:43;12.75;;;8.20;;
63801;SDS011;49949;43.060;25.624;2023-08-17T01:23:10;10.77;;;7.57;;
63801;SDS011;49949;43.060;25.624;2023-08-17T01:25:35;15.93;;;8.77;;
63801;SDS011;49949;43.060;25.624;2023-08-17T01:28:04;15.32;;;8.32;;
63801;SDS011;49949;43.060;25.624;2023-08-17T01:30:33;13.98;;;8.00;;
63801;SDS011;49949;43.060;25.624;2023-08-17T01:33:22;10.38;;;7.20;;
63801;SDS011;49949;43.060;25.624;2023-08-17T01:38:24;10.85;;;7.18;;
63801;SDS011;49949;43.060;25.624;2023-08-17T01:40:52;16.45;;;6.53;;
63801;SDS011;49949;43.060;25.624;2023-08-17T01:43:18;13.38;;;6.50;;
63801;SDS011;49949;43.060;25.624;2023-08-17T01:45:45;11.38;;;7.05;;
63801;SDS011;49949;43.060;25.624;2023-08-17T01:48:11;11.63;;;6.60;;
63801;SDS011;49949;43.060;25.624;2023-08-17T01:50:37;10.52;;;6.10;;
63801;SDS011;49949;43.060;25.624;2023-08-17T01:53:02;10.27;;;5.93;;
63801;SDS011;49949;43.060;25.624;2023-08-17T01:55:28;13.10;;;6.10;;
63801;SDS011;49949;43.060;25.624;2023-08-17T01:57:54;11.27;;;5.88;;
63801;SDS011;49949;43.060;25.624;2023-08-17T02:00:20;12.07;;;7.18;;
63801;SDS011;49949;43.060;25.624;2023-08-17T02:02:45;9.07;;;6.43;;
63801;SDS011;49949;43.060;25.624;2023-08-17T02:05:11;14.32;;;6.80;;
63801;SDS011;49949;43.060;25.624;2023-08-17T02:07:37;10.68;;;7.78;;
63801;SDS011;49949;43.060;25.624;2023-08-17T02:10:03;16.67;;;7.38;;
63801;SDS011;49949;43.060;25.624;2023-08-17T02:12:29;10.75;;;6.90;;
63801;SDS011;49949;43.060;25.624;2023-08-17T02:14:54;13.13;;;6.70;;
63801;SDS011;49949;43.060;25.624;2023-08-17T02:17:20;8.13;;;5.93;;
63801;SDS011;49949;43.060;25.624;2023-08-17T02:19:47;8.15;;;6.10;;
63801;SDS011;49949;43.060;25.624;2023-08-17T02:22:13;8.68;;;6.18;;
63801;SDS011;49949;43.060;25.624;2023-08-17T02:24:39;7.95;;;6.55;;
63801;SDS011;49949;43.060;25.624;2023-08-17T02:27:05;12.20;;;7.13;;
63801;SDS011;49949;43.060;25.624;2023-08-17T02:29:31;16.45;;;7.13;;
63801;SDS011;49949;43.060;25.624;2023-08-17T02:31:57;10.73;;;6.38;;
63801;SDS011;49949;43.060;25.624;2023-08-17T02:34:23;12.30;;;6.47;;
63801;SDS011;49949;43.060;25.624;2023-08-17T02:36:48;13.13;;;7.35;;
63801;SDS011;49949;43.060;25.624;2023-08-17T02:39:14;19.70;;;7.35;;
63801;SDS011;49949;43.060;25.624;2023-08-17T02:41:40;14.63;;;8.00;;
63801;SDS011;49949;43.060;25.624;2023-08-17T02:44:06;12.52;;;7.70;;
63801;SDS011;49949;43.060;25.624;2023-08-17T02:46:31;17.02;;;9.38;;
63801;SDS011;49949;43.060;25.624;2023-08-17T02:48:57;20.20;;;12.05;;
63801;SDS011;49949;43.060;25.624;2023-08-17T02:51:23;21.83;;;10.05;;
63801;SDS011;49949;43.060;25.624;2023-08-17T02:53:48;18.55;;;9.48;;
63801;SDS011;49949;43.060;25.624;2023-08-17T02:56:14;20.17;;;9.43;;
63801;SDS011;49949;43.060;25.624;2023-08-17T02:58:40;14.32;;;9.30;;
63801;SDS011;49949;43.060;25.624;2023-08-17T03:01:06;44.15;;;26.92;;
63801;SDS011;49949;43.060;25.624;2023-08-17T03:03:32;19.70;;;8.55;;
63801;SDS011;49949;43.060;25.624;2023-08-17T03:05:58;15.45;;;8.57;;
63801;SDS011;49949;43.060;25.624;2023-08-17T03:08:24;18.48;;;10.27;;
63801;SDS011;49949;43.060;25.624;2023-08-17T03:10:50;18.13;;;10.15;;
63801;SDS011;49949;43.060;25.624;2023-08-17T03:13:16;19.73;;;10.02;;
63801;SDS011;49949;43.060;25.624;2023-08-17T03:15:42;18.70;;;9.63;;
63801;SDS011;49949;43.060;25.624;2023-08-17T03:18:07;19.98;;;10.20;;
63801;SDS011;49949;43.060;25.624;2023-08-17T03:20:33;16.40;;;9.43;;
63801;SDS011;49949;43.060;25.624;2023-08-17T03:22:59;15.60;;;9.88;;
63801;SDS011;49949;43.060;25.624;2023-08-17T03:25:25;30.55;;;14.75;;
63801;SDS011;49949;43.060;25.624;2023-08-17T03:27:50;19.00;;;9.52;;
63801;SDS011;49949;43.060;25.624;2023-08-17T03:30:16;16.50;;;9.30;;
63801;SDS011;49949;43.060;25.624;2023-08-17T03:32:42;16.00;;;9.77;;
63801;SDS011;49949;43.060;25.624;2023-08-17T03:35:07;13.75;;;9.30;;
63801;SDS011;49949;43.060;25.624;2023-08-17T03:37:33;15.73;;;9.07;;
63801;SDS011;49949;43.060;25.624;2023-08-17T03:39:59;17.45;;;9.52;;
63801;SDS011;49949;43.060;25.624;2023-08-17T03:42:25;16.50;;;10.15;;
63801;SDS011;49949;43.060;25.624;2023-08-17T03:44:52;14.27;;;9.20;;
63801;SDS011;49949;43.060;25.624;2023-08-17T03:47:18;19.55;;;9.60;;
63801;SDS011;49949;43.060;25.624;2023-08-17T03:49:44;15.63;;;9.70;;
63801;SDS011;49949;43.060;25.624;2023-08-17T03:52:11;20.00;;;9.88;;
63801;SDS011;49949;43.060;25.624;2023-08-17T03:54:37;19.23;;;10.38;;
63801;SDS011;49949;43.060;25.624;2023-08-17T03:57:02;14.55;;;9.90;;
63801;SDS011;49949;43.060;25.624;2023-08-17T03:59:28;20.40;;;10.43;;
63801;SDS011;49949;43.060;25.624;2023-08-17T04:01:54;15.98;;;8.90;;
63801;SDS011;49949;43.060;25.624;2023-08-17T04:04:20;19.17;;;7.57;;
63801;SDS011;49949;43.060;25.624;2023-08-17T04:06:45;13.75;;;7.47;;
63801;SDS011;49949;43.060;25.624;2023-08-17T04:09:11;10.90;;;6.55;;
63801;SDS011;49949;43.060;25.624;2023-08-17T04:11:37;13.20;;;6.45;;
63801;SDS011;49949;43.060;25.624;2023-08-17T04:14:03;11.70;;;6.22;;
63801;SDS011;49949;43.060;25.624;2023-08-17T04:16:29;14.75;;;5.97;;
63801;SDS011;49949;43.060;25.624;2023-08-17T04:18:55;22.63;;;7.22;;
63801;SDS011;49949;43.060;25.624;2023-08-17T04:21:21;16.92;;;7.25;;
63801;SDS011;49949;43.060;25.624;2023-08-17T04:23:46;59.85;;;9.05;;
63801;SDS011;49949;43.060;25.624;2023-08-17T04:26:12;15.50;;;7.03;;
63801;SDS011;49949;43.060;25.624;2023-08-17T04:28:38;27.02;;;7.25;;
63801;SDS011;49949;43.060;25.624;2023-08-17T04:31:03;19.27;;;7.55;;
63801;SDS011;49949;43.060;25.624;2023-08-17T04:33:29;18.73;;;6.28;;
63801;SDS011;49949;43.060;25.624;2023-08-17T04:35:55;29.10;;;7.10;;
63801;SDS011;49949;43.060;25.624;2023-08-17T04:38:21;29.10;;;7.88;;
63801;SDS011;49949;43.060;25.624;2023-08-17T04:40:47;24.65;;;7.05;;
63801;SDS011;49949;43.060;25.624;2023-08-17T04:43:12;20.75;;;6.90;;
63801;SDS011;49949;43.060;25.624;2023-08-17T04:45:38;20.85;;;7.38;;
63801;SDS011;49949;43.060;25.624;2023-08-17T04:48:04;26.13;;;7.75;;
63801;SDS011;49949;43.060;25.624;2023-08-17T04:50:31;44.17;;;7.53;;
63801;SDS011;49949;43.060;25.624;2023-08-17T04:52:57;45.08;;;8.15;;
63801;SDS011;49949;43.060;25.624;2023-08-17T04:55:23;57.00;;;9.50;;
63801;SDS011;49949;43.060;25.624;2023-08-17T04:57:49;51.63;;;10.45;;
63801;SDS011;49949;43.060;25.624;2023-08-17T05:00:15;74.95;;;19.83;;
63801;SDS011;49949;43.060;25.624;2023-08-17T05:02:41;58.88;;;17.17;;
63801;SDS011;49949;43.060;25.624;2023-08-17T05:05:09;63.35;;;19.92;;
63801;SDS011;49949;43.060;25.624;2023-08-17T05:07:35;68.53;;;18.13;;
63801;SDS011;49949;43.060;25.624;2023-08-17T05:10:01;72.15;;;19.13;;
63801;SDS011;49949;43.060;25.624;2023-08-17T05:12:27;135.80;;;22.17;;
63801;SDS011;49949;43.060;25.624;2023-08-17T05:14:53;46.67;;;20.67;;
63801;SDS011;49949;43.060;25.624;2023-08-17T05:17:19;56.33;;;22.55;;
63801;SDS011;49949;43.060;25.624;2023-08-17T05:19:44;56.88;;;21.10;;
63801;SDS011;49949;43.060;25.624;2023-08-17T05:22:10;88.60;;;24.42;;
63801;SDS011;49949;43.060;25.624;2023-08-17T05:24:37;81.85;;;23.92;;
63801;SDS011;49949;43.060;25.624;2023-08-17T05:27:04;64.45;;;22.90;;
63801;SDS011;49949;43.060;25.624;2023-08-17T05:29:30;64.80;;;23.00;;
63801;SDS011;49949;43.060;25.624;2023-08-17T05:31:57;90.45;;;34.20;;
63801;SDS011;49949;43.060;25.624;2023-08-17T05:34:23;94.80;;;32.45;;
63801;SDS011;49949;43.060;25.624;2023-08-17T05:36:49;68.57;;;30.10;;
63801;SDS011;49949;43.060;25.624;2023-08-17T05:39:14;58.25;;;26.50;;
63801;SDS011;49949;43.060;25.624;2023-08-17T05:41:41;64.72;;;25.67;;
63801;SDS011;49949;43.060;25.624;2023-08-17T05:44:09;57.80;;;23.90;;
63801;SDS011;49949;43.060;25.624;2023-08-17T05:46:35;55.50;;;25.17;;
63801;SDS011;49949;43.060;25.624;2023-08-17T05:49:01;43.15;;;20.77;;
63801;SDS011;49949;43.060;25.624;2023-08-17T05:51:27;53.50;;;21.30;;
63801;SDS011;49949;43.060;25.624;2023-08-17T05:53:53;65.18;;;17.48;;
63801;SDS011;49949;43.060;25.624;2023-08-17T05:56:19;36.58;;;13.13;;
63801;SDS011;49949;43.060;25.624;2023-08-17T05:58:45;36.88;;;12.20;;
63801;SDS011;49949;43.060;25.624;2023-08-17T06:01:11;25.92;;;8.52;;
63801;SDS011;49949;43.060;25.624;2023-08-17T06:03:37;27.38;;;7.95;;
63801;SDS011;49949;43.060;25.624;2023-08-17T06:06:03;39.13;;;9.02;;
63801;SDS011;49949;43.060;25.624;2023-08-17T06:08:32;27.38;;;8.70;;
63801;SDS011;49949;43.060;25.624;2023-08-17T06:10:58;31.67;;;11.45;;
63801;SDS011;49949;43.060;25.624;2023-08-17T06:13:23;27.65;;;10.32;;
63801;SDS011;49949;43.060;25.624;2023-08-17T06:15:49;36.67;;;6.90;;
63801;SDS011;49949;43.060;25.624;2023-08-17T06:18:15;27.15;;;7.50;;
63801;SDS011;49949;43.060;25.624;2023-08-17T06:20:41;21.88;;;8.70;;
63801;SDS011;49949;43.060;25.624;2023-08-17T06:23:07;79.43;;;20.98;;
63801;SDS011;49949;43.060;25.624;2023-08-17T06:25:32;40.13;;;19.13;;
63801;SDS011;49949;43.060;25.624;2023-08-17T06:27:59;52.63;;;20.63;;
63801;SDS011;49949;43.060;25.624;2023-08-17T06:30:25;75.28;;;17.40;;
63801;SDS011;49949;43.060;25.624;2023-08-17T06:32:51;70.78;;;18.73;;
63801;SDS011;49949;43.060;25.624;2023-08-17T06:35:16;56.67;;;21.75;;
63801;SDS011;49949;43.060;25.624;2023-08-17T06:37:42;61.35;;;21.02;;
63801;SDS011;49949;43.060;25.624;2023-08-17T06:40:08;89.05;;;24.42;;
63801;SDS011;49949;43.060;25.624;2023-08-17T06:42:34;62.30;;;24.27;;
63801;SDS011;49949;43.060;25.624;2023-08-17T06:45:00;53.35;;;23.10;;
63801;SDS011;49949;43.060;25.624;2023-08-17T06:47:26;64.28;;;25.23;;
63801;SDS011;49949;43.060;25.624;2023-08-17T06:49:52;73.72;;;24.58;;
63801;SDS011;49949;43.060;25.624;2023-08-17T06:52:17;60.88;;;22.67;;
63801;SDS011;49949;43.060;25.624;2023-08-17T06:54:46;60.53;;;21.20;;
63801;SDS011;49949;43.060;25.624;2023-08-17T06:57:12;40.28;;;13.93;;
63801;SDS011;49949;43.060;25.624;2023-08-17T06:59:38;47.40;;;11.63;;
63801;SDS011;49949;43.060;25.624;2023-08-17T07:02:03;29.25;;;12.25;;
63801;SDS011;49949;43.060;25.624;2023-08-17T07:04:29;37.85;;;13.05;;
63801;SDS011;49949;43.060;25.624;2023-08-17T07:06:55;27.13;;;10.88;;
63801;SDS011;49949;43.060;25.624;2023-08-17T07:09:20;25.45;;;10.48;;
63801;SDS011;49949;43.060;25.624;2023-08-17T07:11:46;30.38;;;9.75;;
63801;SDS011;49949;43.060;25.624;2023-08-17T07:14:12;27.55;;;9.07;;
63801;SDS011;49949;43.060;25.624;2023-08-17T07:16:37;26.33;;;10.65;;
63801;SDS011;49949;43.060;25.624;2023-08-17T07:19:03;16.65;;;9.25;;
63801;SDS011;49949;43.060;25.624;2023-08-17T07:21:29;24.38;;;9.45;;
63801;SDS011;49949;43.060;25.624;2023-08-17T07:23:55;15.63;;;7.55;;
63801;SDS011;49949;43.060;25.624;2023-08-17T07:26:21;20.60;;;7.18;;
63801;SDS011;49949;43.060;25.624;2023-08-17T07:28:47;15.65;;;6.43;;
63801;SDS011;49949;43.060;25.624;2023-08-17T07:31:13;35.25;;;10.45;;
63801;SDS011;49949;43.060;25.624;2023-08-17T07:33:39;67.60;;;11.27;;
63801;SDS011;49949;43.060;25.624;2023-08-17T07:36:05;21.08;;;7.13;;
63801;SDS011;49949;43.060;25.624;2023-08-17T07:38:31;26.05;;;8.00;;
63801;SDS011;49949;43.060;25.624;2023-08-17T07:40:56;19.55;;;6.18;;
63801;SDS011;49949;43.060;25.624;2023-08-17T07:43:22;8.52;;;5.38;;
63801;SDS011;49949;43.060;25.624;2023-08-17T07:45:55;11.25;;;4.82;;
63801;SDS011;49949;43.060;25.624;2023-08-17T07:48:21;10.10;;;4.75;;
63801;SDS011;49949;43.060;25.624;2023-08-17T07:50:48;7.35;;;4.18;;
63801;SDS011;49949;43.060;25.624;2023-08-17T07:53:15;14.40;;;4.18;;
63801;SDS011;49949;43.060;25.624;2023-08-17T07:55:41;11.57;;;4.03;;
63801;SDS011;49949;43.060;25.624;2023-08-17T07:58:07;9.35;;;4.30;;
63801;SDS011;49949;43.060;25.624;2023-08-17T08:00:33;8.45;;;4.38;;
63801;SDS011;49949;43.060;25.624;2023-08-17T08:03:01;12.15;;;4.38;;
63801;SDS011;49949;43.060;25.624;2023-08-17T08:05:27;9.63;;;3.58;;
63801;SDS011;49949;43.060;25.624;2023-08-17T08:07:53;10.30;;;4.13;;
63801;SDS011;49949;43.060;25.624;2023-08-17T08:10:19;12.27;;;4.10;;
63801;SDS011;49949;43.060;25.624;2023-08-17T08:12:44;9.63;;;3.53;;
63801;SDS011;49949;43.060;25.624;2023-08-17T08:15:10;10.90;;;3.72;;
63801;SDS011;49949;43.060;25.624;2023-08-17T08:17:36;10.98;;;3.30;;
63801;SDS011;49949;43.060;25.624;2023-08-17T08:20:02;9.77;;;3.70;;
63801;SDS011;49949;43.060;25.624;2023-08-17T08:22:28;10.48;;;3.92;;
63801;SDS011;49949;43.060;25.624;2023-08-17T08:24:54;9.82;;;4.10;;
63801;SDS011;49949;43.060;25.624;2023-08-17T08:27:20;9.60;;;3.85;;
63801;SDS011;49949;43.060;25.624;2023-08-17T08:29:45;13.05;;;3.67;;
63801;SDS011;49949;43.060;25.624;2023-08-17T08:32:11;16.50;;;3.80;;
63801;SDS011;49949;43.060;25.624;2023-08-17T08:34:37;6.68;;;3.78;;
63801;SDS011;49949;43.060;25.624;2023-08-17T08:37:03;17.42;;;4.22;;
63801;SDS011;49949;43.060;25.624;2023-08-17T08:39:29;12.85;;;4.10;;
63801;SDS011;49949;43.060;25.624;2023-08-17T08:41:54;6.20;;;3.80;;
63801;SDS011;49949;43.060;25.624;2023-08-17T08:44:20;10.88;;;4.18;;
63801;SDS011;49949;43.060;25.624;2023-08-17T08:46:46;14.80;;;3.67;;
63801;SDS011;49949;43.060;25.624;2023-08-17T08:49:15;7.18;;;3.60;;
63801;SDS011;49949;43.060;25.624;2023-08-17T08:51:46;7.22;;;3.83;;
63801;SDS011;49949;43.060;25.624;2023-08-17T08:54:21;8.07;;;3.53;;
63801;SDS011;49949;43.060;25.624;2023-08-17T08:56:49;4.97;;;3.00;;
63801;SDS011;49949;43.060;25.624;2023-08-17T08:59:20;18.40;;;4.43;;
63801;SDS011;49949;43.060;25.624;2023-08-17T09:01:46;8.23;;;3.47;;
63801;SDS011;49949;43.060;25.624;2023-08-17T09:04:12;10.75;;;3.08;;
63801;SDS011;49949;43.060;25.624;2023-08-17T09:06:38;5.13;;;3.33;;
63801;SDS011;49949;43.060;25.624;2023-08-17T09:09:06;8.73;;;2.83;;
63801;SDS011;49949;43.060;25.624;2023-08-17T09:11:33;11.80;;;2.72;;
63801;SDS011;49949;43.060;25.624;2023-08-17T09:13:59;8.07;;;3.13;;
63801;SDS011;49949;43.060;25.624;2023-08-17T09:16:26;8.27;;;3.35;;
63801;SDS011;49949;43.060;25.624;2023-08-17T09:18:52;3.78;;;3.10;;
63801;SDS011;49949;43.060;25.624;2023-08-17T09:21:22;10.55;;;3.20;;
63801;SDS011;49949;43.060;25.624;2023-08-17T09:23:52;4.32;;;2.90;;
63801;SDS011;49949;43.060;25.624;2023-08-17T09:26:19;3.95;;;3.15;;
63801;SDS011;49949;43.060;25.624;2023-08-17T09:28:48;5.00;;;2.72;;
63801;SDS011;49949;43.060;25.624;2023-08-17T09:31:23;4.55;;;2.95;;
63801;SDS011;49949;43.060;25.624;2023-08-17T09:33:49;10.57;;;3.15;;
63801;SDS011;49949;43.060;25.624;2023-08-17T09:36:19;7.53;;;3.10;;
63801;SDS011;49949;43.060;25.624;2023-08-17T09:38:47;7.22;;;3.42;;
63801;SDS011;49949;43.060;25.624;2023-08-17T09:41:17;9.65;;;3.50;;
63801;SDS011;49949;43.060;25.624;2023-08-17T09:43:43;8.48;;;2.88;;
63801;SDS011;49949;43.060;25.624;2023-08-17T09:46:10;6.43;;;2.95;;
63801;SDS011;49949;43.060;25.624;2023-08-17T09:48:36;8.63;;;3.22;;
63801;SDS011;49949;43.060;25.624;2023-08-17T09:51:02;7.22;;;3.55;;
63801;SDS011;49949;43.060;25.624;2023-08-17T09:53:33;5.78;;;3.15;;
63801;SDS011;49949;43.060;25.624;2023-08-17T09:58:27;4.50;;;2.85;;
63801;SDS011;49949;43.060;25.624;2023-08-17T10:00:53;9.48;;;2.95;;
63801;SDS011;49949;43.060;25.624;2023-08-17T10:03:20;8.02;;;2.40;;
63801;SDS011;49949;43.060;25.624;2023-08-17T10:05:52;10.27;;;3.20;;
63801;SDS011;49949;43.060;25.624;2023-08-17T10:08:24;6.43;;;2.90;;
63801;SDS011;49949;43.060;25.624;2023-08-17T10:10:52;11.40;;;3.25;;
63801;SDS011;49949;43.060;25.624;2023-08-17T10:18:54;8.10;;;2.95;;
63801;SDS011;49949;43.060;25.624;2023-08-17T10:21:25;6.28;;;3.13;;
63801;SDS011;49949;43.060;25.624;2023-08-17T10:23:54;4.03;;;3.10;;
63801;SDS011;49949;43.060;25.624;2023-08-17T10:26:21;12.73;;;3.30;;
63801;SDS011;49949;43.060;25.624;2023-08-17T10:28:48;6.32;;;3.28;;
63801;SDS011;49949;43.060;25.624;2023-08-17T10:31:15;7.60;;;2.70;;
63801;SDS011;49949;43.060;25.624;2023-08-17T10:33:41;8.18;;;3.05;;
63801;SDS011;49949;43.060;25.624;2023-08-17T10:36:11;3.47;;;3.00;;
63801;SDS011;49949;43.060;25.624;2023-08-17T10:38:38;6.38;;;3.22;;
63801;SDS011;49949;43.060;25.624;2023-08-17T10:44:36;4.63;;;3.28;;
63801;SDS011;49949;43.060;25.624;2023-08-17T10:46:32;6.13;;;2.90;;
63801;SDS011;49949;43.060;25.624;2023-08-17T10:49:05;8.45;;;2.80;;
63801;SDS011;49949;43.060;25.624;2023-08-17T10:51:32;17.77;;;3.20;;
63801;SDS011;49949;43.060;25.624;2023-08-17T10:54:01;12.13;;;3.05;;
63801;SDS011;49949;43.060;25.624;2023-08-17T10:56:28;9.75;;;3.22;;
63801;SDS011;49949;43.060;25.624;2023-08-17T10:58:54;22.80;;;3.42;;
63801;SDS011;49949;43.060;25.624;2023-08-17T11:01:31;6.72;;;3.22;;
63801;SDS011;49949;43.060;25.624;2023-08-17T11:04:10;8.65;;;2.53;;
63801;SDS011;49949;43.060;25.624;2023-08-17T11:06:45;12.30;;;2.60;;
63801;SDS011;49949;43.060;25.624;2023-08-17T11:09:11;6.07;;;2.55;;
63801;SDS011;49949;43.060;25.624;2023-08-17T11:11:37;9.18;;;2.55;;
63801;SDS011;49949;43.060;25.624;2023-08-17T11:14:03;5.72;;;2.72;;
63801;SDS011;49949;43.060;25.624;2023-08-17T11:16:29;7.40;;;2.42;;
63801;SDS011;49949;43.060;25.624;2023-08-17T11:18:55;3.55;;;2.53;;
63801;SDS011;49949;43.060;25.624;2023-08-17T11:21:23;7.15;;;2.88;;
63801;SDS011;49949;43.060;25.624;2023-08-17T11:23:49;6.28;;;2.88;;
63801;SDS011;49949;43.060;25.624;2023-08-17T11:26:16;6.45;;;2.47;;
63801;SDS011;49949;43.060;25.624;2023-08-17T11:28:42;3.75;;;2.50;;
63801;SDS011;49949;43.060;25.624;2023-08-17T11:31:10;12.65;;;2.97;;
63801;SDS011;49949;43.060;25.624;2023-08-17T11:33:37;7.47;;;2.88;;
63801;SDS011;49949;43.060;25.624;2023-08-17T11:36:04;12.93;;;2.80;;
63801;SDS011;49949;43.060;25.624;2023-08-17T11:38:32;4.03;;;2.35;;
63801;SDS011;49949;43.060;25.624;2023-08-17T11:40:59;7.45;;;3.03;;
63801;SDS011;49949;43.060;25.624;2023-08-17T11:43:29;6.60;;;2.70;;
63801;SDS011;49949;43.060;25.624;2023-08-17T11:45:57;8.50;;;2.97;;
63801;SDS011;49949;43.060;25.624;2023-08-17T11:48:23;8.93;;;2.60;;
63801;SDS011;49949;43.060;25.624;2023-08-17T11:50:49;3.42;;;2.55;;
63801;SDS011;49949;43.060;25.624;2023-08-17T11:53:16;7.15;;;2.63;;
63801;SDS011;49949;43.060;25.624;2023-08-17T11:55:41;4.32;;;3.00;;
63801;SDS011;49949;43.060;25.624;2023-08-17T11:58:07;3.65;;;2.50;;
63801;SDS011;49949;43.060;25.624;2023-08-17T12:00:37;12.00;;;3.22;;
63801;SDS011;49949;43.060;25.624;2023-08-17T12:03:06;10.35;;;3.13;;
63801;SDS011;49949;43.060;25.624;2023-08-17T12:05:32;7.25;;;2.80;;
63801;SDS011;49949;43.060;25.624;2023-08-17T12:08:01;5.40;;;2.83;;
63801;SDS011;49949;43.060;25.624;2023-08-17T12:10:30;11.38;;;3.22;;
63801;SDS011;49949;43.060;25.624;2023-08-17T12:12:57;5.90;;;2.75;;
63801;SDS011;49949;43.060;25.624;2023-08-17T12:15:29;6.10;;;2.42;;
63801;SDS011;49949;43.060;25.624;2023-08-17T12:17:59;4.22;;;2.30;;
63801;SDS011;49949;43.060;25.624;2023-08-17T12:20:27;8.20;;;3.10;;
63801;SDS011;49949;43.060;25.624;2023-08-17T12:22:52;10.88;;;2.45;;
63801;SDS011;49949;43.060;25.624;2023-08-17T12:25:21;10.07;;;3.22;;
63801;SDS011;49949;43.060;25.624;2023-08-17T12:27:48;6.85;;;3.10;;
63801;SDS011;49949;43.060;25.624;2023-08-17T12:30:24;8.43;;;2.75;;
63801;SDS011;49949;43.060;25.624;2023-08-17T12:32:54;2.92;;;2.67;;
63801;SDS011;49949;43.060;25.624;2023-08-17T12:35:20;4.13;;;2.75;;
63801;SDS011;49949;43.060;25.624;2023-08-17T12:37:48;4.72;;;2.30;;
63801;SDS011;49949;43.060;25.624;2023-08-17T12:40:14;6.88;;;2.58;;
63801;SDS011;49949;43.060;25.624;2023-08-17T12:42:40;5.97;;;2.35;;
63801;SDS011;49949;43.060;25.624;2023-08-17T12:45:06;8.52;;;2.50;;
63801;SDS011;49949;43.060;25.624;2023-08-17T12:47:32;4.45;;;2.70;;
63801;SDS011;49949;43.060;25.624;2023-08-17T12:49:58;5.22;;;3.08;;
63801;SDS011;49949;43.060;25.624;2023-08-17T12:52:23;9.75;;;3.22;;
63801;SDS011;49949;43.060;25.624;2023-08-17T12:54:49;7.65;;;3.33;;
63801;SDS011;49949;43.060;25.624;2023-08-17T12:57:15;7.88;;;2.40;;
63801;SDS011;49949;43.060;25.624;2023-08-17T12:59:40;4.72;;;2.53;;
63801;SDS011;49949;43.060;25.624;2023-08-17T13:02:06;4.70;;;2.97;;
63801;SDS011;49949;43.060;25.624;2023-08-17T13:04:32;4.80;;;2.80;;
63801;SDS011;49949;43.060;25.624;2023-08-17T13:06:57;7.97;;;2.15;;
63801;SDS011;49949;43.060;25.624;2023-08-17T13:09:23;4.25;;;2.85;;
63801;SDS011;49949;43.060;25.624;2023-08-17T13:11:48;3.95;;;2.58;;
63801;SDS011;49949;43.060;25.624;2023-08-17T13:14:14;3.95;;;3.00;;
63801;SDS011;49949;43.060;25.624;2023-08-17T13:16:42;5.93;;;2.95;;
63801;SDS011;49949;43.060;25.624;2023-08-17T13:19:07;4.78;;;2.72;;
63801;SDS011;49949;43.060;25.624;2023-08-17T13:21:33;4.70;;;2.60;;
63801;SDS011;49949;43.060;25.624;2023-08-17T13:23:59;4.93;;;2.50;;
63801;SDS011;49949;43.060;25.624;2023-08-17T13:26:25;6.28;;;2.38;;
63801;SDS011;49949;43.060;25.624;2023-08-17T13:28:50;4.47;;;2.47;;
63801;SDS011;49949;43.060;25.624;2023-08-17T13:31:16;5.93;;;2.45;;
63801;SDS011;49949;43.060;25.624;2023-08-17T13:33:42;3.80;;;2.78;;
63801;SDS011;49949;43.060;25.624;2023-08-17T13:36:07;7.40;;;3.15;;
63801;SDS011;49949;43.060;25.624;2023-08-17T13:38:33;4.20;;;1.80;;
63801;SDS011;49949;43.060;25.624;2023-08-17T13:40:59;5.88;;;2.70;;
63801;SDS011;49949;43.060;25.624;2023-08-17T13:43:24;11.70;;;2.95;;
63801;SDS011;49949;43.060;25.624;2023-08-17T13:45:50;8.80;;;2.95;;
63801;SDS011;49949;43.060;25.624;2023-08-17T13:48:16;3.30;;;2.60;;
63801;SDS011;49949;43.060;25.624;2023-08-17T13:50:41;13.20;;;3.20;;
63801;SDS011;49949;43.060;25.624;2023-08-17T13:53:07;8.20;;;2.90;;
63801;SDS011;49949;43.060;25.624;2023-08-17T13:55:33;3.85;;;3.03;;
63801;SDS011;49949;43.060;25.624;2023-08-17T13:57:59;4.55;;;2.92;;
63801;SDS011;49949;43.060;25.624;2023-08-17T14:00:25;10.98;;;4.47;;
63801;SDS011;49949;43.060;25.624;2023-08-17T14:02:51;9.25;;;3.78;;
63801;SDS011;49949;43.060;25.624;2023-08-17T14:05:17;6.05;;;2.40;;
63801;SDS011;49949;43.060;25.624;2023-08-17T14:07:43;4.55;;;2.88;;
63801;SDS011;49949;43.060;25.624;2023-08-17T14:10:09;6.18;;;2.80;;
63801;SDS011;49949;43.060;25.624;2023-08-17T14:12:35;7.57;;;2.88;;
63801;SDS011;49949;43.060;25.624;2023-08-17T14:15:00;9.07;;;3.25;;
63801;SDS011;49949;43.060;25.624;2023-08-17T14:17:26;9.02;;;2.70;;
63801;SDS011;49949;43.060;25.624;2023-08-17T14:19:52;7.75;;;2.95;;
63801;SDS011;49949;43.060;25.624;2023-08-17T14:22:18;7.85;;;3.25;;
63801;SDS011;49949;43.060;25.624;2023-08-17T14:24:44;8.27;;;3.13;;
63801;SDS011;49949;43.060;25.624;2023-08-17T14:27:09;4.57;;;2.65;;
63801;SDS011;49949;43.060;25.624;2023-08-17T14:29:35;9.40;;;2.75;;
63801;SDS011;49949;43.060;25.624;2023-08-17T14:32:01;4.30;;;2.80;;
63801;SDS011;49949;43.060;25.624;2023-08-17T14:34:26;4.85;;;3.08;;
63801;SDS011;49949;43.060;25.624;2023-08-17T14:36:52;4.85;;;2.80;;
63801;SDS011;49949;43.060;25.624;2023-08-17T14:39:17;4.93;;;2.78;;